Time;durP1;ratioP1;P1;durP2;ratioP2;P2;SDS_P1;SDS_P2;PMS_P1;PMS_P2;Temp;Humidity;BMP_temperature;BMP_pressure;BME280_temperature;BME280_humidity;BME280_pressure;Samples;Min_cycle;Max_cycle;Signal;HPM_P1;HPM_P2
2023/03/11 00:00:41;;;;;;;0.30;0.20;;;2.70;99.90;;;;;;5073144;28;20433;-80
2023/03/11 00:03:11;;;;;;;0.30;0.30;;;2.60;99.90;;;;;;5073095;28;20445;-80
2023/03/11 00:05:40;;;;;;;0.30;0.20;;;2.50;99.90;;;;;;5073877;28;20449;-81
2023/03/11 00:08:09;;;;;;;2.43;0.40;;;2.50;99.90;;;;;;5072635;28;20469;-80
2023/03/11 00:10:38;;;;;;;0.97;0.30;;;2.50;99.90;;;;;;5073013;28;20457;-80
2023/03/11 00:13:07;;;;;;;0.30;0.20;;;2.50;99.90;;;;;;5073001;28;20473;-80
2023/03/11 00:15:34;;;;;;;0.40;0.40;;;2.50;99.90;;;;;;5072916;28;20474;-80
2023/03/11 00:18:01;;;;;;;0.30;0.30;;;2.50;99.90;;;;;;5072871;28;20481;-80
2023/03/11 00:20:31;;;;;;;0.30;0.30;;;2.50;99.90;;;;;;5072975;28;20486;-80
2023/03/11 00:22:59;;;;;;;0.30;0.30;;;2.50;99.90;;;;;;5073945;28;20444;-80
2023/03/11 00:25:27;;;;;;;0.33;0.27;;;2.40;99.90;;;;;;5072855;28;20448;-80
2023/03/11 00:27:54;;;;;;;0.57;0.57;;;2.40;99.90;;;;;;5072753;28;20467;-80
2023/03/11 00:30:23;;;;;;;0.30;0.30;;;2.40;99.90;;;;;;5072780;28;20450;-80
2023/03/11 00:32:50;;;;;;;0.40;0.30;;;2.40;99.90;;;;;;5073341;28;20457;-80
2023/03/11 00:35:20;;;;;;;0.30;0.30;;;2.40;99.90;;;;;;5073001;28;20477;-80
2023/03/11 00:37:49;;;;;;;0.30;0.30;;;2.40;99.90;;;;;;5072683;28;20471;-80
2023/03/11 00:40:17;;;;;;;0.40;0.40;;;2.40;99.90;;;;;;5072406;28;20445;-80
2023/03/11 00:42:44;;;;;;;0.30;0.20;;;2.40;99.90;;;;;;5072695;28;20457;-80
2023/03/11 00:45:11;;;;;;;0.30;0.30;;;2.50;99.90;;;;;;5072660;28;20465;-80
2023/03/11 00:47:38;;;;;;;0.30;0.30;;;2.40;99.90;;;;;;5075986;28;20473;-77
2023/03/11 00:50:06;;;;;;;0.30;0.30;;;2.50;99.90;;;;;;5076196;28;20822;-77
2023/03/11 00:52:33;;;;;;;0.30;0.30;;;2.50;99.90;;;;;;5076147;28;20861;-77
2023/03/11 00:55:01;;;;;;;0.30;0.30;;;2.60;99.90;;;;;;5076039;28;20489;-76
2023/03/11 00:57:28;;;;;;;0.33;0.27;;;2.60;99.90;;;;;;5076097;28;20472;-77
2023/03/11 00:59:55;;;;;;;0.40;0.30;;;2.60;99.90;;;;;;5076040;28;20449;-77
2023/03/11 01:02:22;;;;;;;0.30;0.30;;;2.70;99.90;;;;;;5076025;28;20446;-77
2023/03/11 01:04:53;;;;;;;0.30;0.30;;;2.70;99.90;;;;;;5076236;28;20442;-77
2023/03/11 01:07:20;;;;;;;0.30;0.30;;;2.80;99.90;;;;;;5075852;28;20437;-77
2023/03/11 01:09:47;;;;;;;0.30;0.30;;;2.80;99.90;;;;;;5075563;28;20944;-77
2023/03/11 01:12:15;;;;;;;0.50;0.30;;;2.80;99.90;;;;;;5075816;28;20449;-77
2023/03/11 01:14:41;;;;;;;0.40;0.30;;;2.90;99.90;;;;;;5075666;28;20484;-80
2023/03/11 01:17:08;;;;;;;0.30;0.30;;;2.90;99.90;;;;;;5075762;28;20452;-80
2023/03/11 01:19:35;;;;;;;0.50;0.50;;;3.00;99.90;;;;;;5075640;28;20477;-80
2023/03/11 01:22:02;;;;;;;0.30;0.20;;;3.00;99.90;;;;;;5075643;28;20449;-80
2023/03/11 01:24:28;;;;;;;0.30;0.30;;;2.90;99.90;;;;;;5075583;28;20475;-80
2023/03/11 01:26:55;;;;;;;0.30;0.30;;;2.90;99.90;;;;;;5075302;28;20441;-80
2023/03/11 01:29:23;;;;;;;0.30;0.20;;;3.00;99.90;;;;;;5075482;28;20473;-80
2023/03/11 01:31:50;;;;;;;0.67;0.67;;;3.00;99.90;;;;;;5075497;28;20441;-80
2023/03/11 01:34:16;;;;;;;0.50;0.40;;;3.00;99.90;;;;;;5075046;28;21000;-80
2023/03/11 01:36:43;;;;;;;0.30;0.30;;;3.00;99.90;;;;;;5075422;28;20452;-80
2023/03/11 01:39:10;;;;;;;0.30;0.20;;;2.90;99.90;;;;;;5075329;28;20470;-80
2023/03/11 01:41:36;;;;;;;0.30;0.30;;;2.90;99.90;;;;;;5075300;28;20460;-80
2023/03/11 01:44:04;;;;;;;1.13;1.03;;;2.90;99.90;;;;;;5075259;28;20457;-80
2023/03/11 01:46:36;;;;;;;1.13;0.40;;;2.80;99.90;;;;;;5074770;28;20477;-80
2023/03/11 01:49:05;;;;;;;0.40;0.30;;;2.80;99.90;;;;;;5075125;28;20457;-80
2023/03/11 01:51:35;;;;;;;0.30;0.30;;;2.70;99.90;;;;;;5075132;28;20453;-80
2023/03/11 01:54:06;;;;;;;0.60;0.30;;;2.70;99.90;;;;;;5075392;28;20429;-80
2023/03/11 01:56:34;;;;;;;0.30;0.30;;;2.60;99.90;;;;;;5074951;28;20418;-80
2023/03/11 01:59:01;;;;;;;0.40;0.30;;;2.60;99.90;;;;;;5073614;28;20968;-80
2023/03/11 02:01:27;;;;;;;0.30;0.30;;;2.70;99.90;;;;;;5074548;28;20449;-80
2023/03/11 02:03:57;;;;;;;0.30;0.20;;;2.60;99.90;;;;;;5074865;28;20446;-80
2023/03/11 02:06:25;;;;;;;0.40;0.30;;;2.60;99.90;;;;;;5075315;28;20468;-80
2023/03/11 02:08:51;;;;;;;0.30;0.20;;;2.50;99.90;;;;;;5074654;28;20472;-80
2023/03/11 02:11:22;;;;;;;0.30;0.30;;;2.40;99.90;;;;;;5074619;28;20460;-80
2023/03/11 02:13:49;;;;;;;0.40;0.40;;;2.40;99.90;;;;;;5074673;28;20795;-80
2023/03/11 02:16:16;;;;;;;0.30;0.20;;;2.30;99.90;;;;;;5074799;28;20477;-80
2023/03/11 02:18:44;;;;;;;0.93;0.50;;;2.30;99.90;;;;;;5074697;28;20850;-80
2023/03/11 02:21:23;;;;;;;0.30;0.30;;;2.20;99.90;;;;;;5075037;28;20524;-80
2023/03/11 02:24:00;;;;;;;0.40;0.40;;;2.20;99.90;;;;;;5074496;28;20441;-80
2023/03/11 02:26:34;;;;;;;0.30;0.20;;;2.10;99.90;;;;;;5074391;28;20487;-80
2023/03/11 02:29:06;;;;;;;0.30;0.20;;;2.10;99.90;;;;;;5074319;28;20467;-80
2023/03/11 02:31:34;;;;;;;0.47;0.27;;;2.00;99.90;;;;;;5074242;28;20438;-81
2023/03/11 02:34:05;;;;;;;0.30;0.20;;;2.00;99.90;;;;;;5074236;28;20520;-80
2023/03/11 02:36:35;;;;;;;0.30;0.30;;;1.90;99.90;;;;;;5074155;28;20473;-80
2023/03/11 02:39:02;;;;;;;0.50;0.30;;;1.90;99.90;;;;;;5073774;28;20991;-80
2023/03/11 02:41:31;;;;;;;0.40;0.30;;;1.80;99.90;;;;;;5074101;28;20441;-80
2023/03/11 02:43:59;;;;;;;1.17;0.40;;;1.80;99.90;;;;;;5074054;28;20925;-80
2023/03/11 02:46:27;;;;;;;33.70;1.00;;;1.70;99.90;;;;;;5073856;28;20476;-80
2023/03/11 02:48:55;;;;;;;0.77;0.77;;;1.70;99.90;;;;;;5073869;28;20817;-80
2023/03/11 02:51:22;;;;;;;0.30;0.30;;;1.60;99.90;;;;;;5073922;28;20439;-80
2023/03/11 02:53:52;;;;;;;0.30;0.30;;;1.50;99.90;;;;;;5073891;28;20797;-80
2023/03/11 02:56:18;;;;;;;0.30;0.30;;;1.50;99.90;;;;;;5073755;28;20485;-80
2023/03/11 02:58:45;;;;;;;0.30;0.20;;;1.50;99.90;;;;;;5073762;28;20465;-80
2023/03/11 03:01:12;;;;;;;0.30;0.20;;;1.40;99.90;;;;;;5073783;28;20453;-80
2023/03/11 03:03:40;;;;;;;0.30;0.30;;;1.50;99.90;;;;;;5073706;28;20457;-80
2023/03/11 03:06:07;;;;;;;0.30;0.20;;;1.40;99.90;;;;;;5073716;28;20445;-80
2023/03/11 03:08:34;;;;;;;0.30;0.30;;;1.40;99.90;;;;;;5073268;28;20468;-80
2023/03/11 03:11:02;;;;;;;0.30;0.30;;;1.40;99.90;;;;;;5073658;28;20458;-80
2023/03/11 03:13:29;;;;;;;0.30;0.20;;;1.30;99.90;;;;;;5073614;28;20450;-80
2023/03/11 03:15:56;;;;;;;0.30;0.20;;;1.30;99.90;;;;;;5073192;28;20568;-80
2023/03/11 03:18:23;;;;;;;0.30;0.20;;;1.30;99.90;;;;;;5073196;28;20468;-80
2023/03/11 03:20:52;;;;;;;0.30;0.30;;;1.30;99.90;;;;;;5073534;28;20450;-80
2023/03/11 03:23:19;;;;;;;0.37;0.33;;;1.20;99.90;;;;;;5073502;28;20460;-80
2023/03/11 03:25:46;;;;;;;0.30;0.20;;;1.20;99.90;;;;;;5073483;28;20446;-80
2023/03/11 03:28:13;;;;;;;0.30;0.30;;;1.20;99.90;;;;;;5073412;28;20473;-79
2023/03/11 03:30:41;;;;;;;0.30;0.20;;;1.20;99.90;;;;;;5073425;28;20446;-80
2023/03/11 03:33:08;;;;;;;0.30;0.30;;;1.10;99.90;;;;;;5073363;28;20449;-80
2023/03/11 03:35:35;;;;;;;0.30;0.20;;;1.00;99.90;;;;;;5072932;28;21019;-80
2023/03/11 03:38:03;;;;;;;0.30;0.30;;;1.00;99.90;;;;;;5073272;28;20461;-80
2023/03/11 03:40:30;;;;;;;0.30;0.20;;;1.00;99.90;;;;;;5073307;28;20452;-80
2023/03/11 03:42:56;;;;;;;0.30;0.30;;;0.90;99.90;;;;;;5073295;28;20441;-80
2023/03/11 03:45:23;;;;;;;0.30;0.30;;;0.90;99.90;;;;;;5072946;28;20469;-80
2023/03/11 03:47:50;;;;;;;0.87;0.87;;;0.80;99.90;;;;;;5073269;28;20464;-80
2023/03/11 03:50:16;;;;;;;0.30;0.30;;;0.80;99.90;;;;;;5073223;28;20444;-80
2023/03/11 03:52:43;;;;;;;0.30;0.20;;;0.70;99.90;;;;;;5073429;28;20441;-80
2023/03/11 03:55:11;;;;;;;0.30;0.30;;;0.70;99.90;;;;;;5072772;28;20476;-80
2023/03/11 03:57:38;;;;;;;0.40;0.40;;;0.70;99.90;;;;;;5073120;28;20462;-80
2023/03/11 04:00:08;;;;;;;0.30;0.30;;;0.70;99.90;;;;;;5073103;28;20420;-80
2023/03/11 04:02:34;;;;;;;0.30;0.20;;;0.70;99.90;;;;;;5073304;28;20500;-80
2023/03/11 04:05:01;;;;;;;0.30;0.20;;;0.60;99.90;;;;;;5072741;28;20820;-80
2023/03/11 04:07:28;;;;;;;1.20;0.47;;;0.60;99.90;;;;;;5072969;28;20437;-80
2023/03/11 04:09:55;;;;;;;0.30;0.20;;;0.60;99.90;;;;;;5072702;28;20445;-80
2023/03/11 04:12:23;;;;;;;0.40;0.40;;;0.60;99.90;;;;;;5073220;28;20442;-80
2023/03/11 04:14:50;;;;;;;0.40;0.30;;;0.50;99.90;;;;;;5073714;28;20464;-80
2023/03/11 04:17:17;;;;;;;0.30;0.30;;;0.50;99.90;;;;;;5072875;28;20472;-80
2023/03/11 04:19:44;;;;;;;0.30;0.30;;;0.50;99.90;;;;;;5072967;28;20450;-80
2023/03/11 04:22:11;;;;;;;0.30;0.30;;;0.40;99.90;;;;;;5075711;28;20963;-80
2023/03/11 04:24:37;;;;;;;0.30;0.20;;;0.40;99.90;;;;;;5076424;28;20919;-80
2023/03/11 04:27:04;;;;;;;0.30;0.20;;;0.40;99.90;;;;;;5076671;28;20444;-80
2023/03/11 04:29:32;;;;;;;0.30;0.20;;;0.40;99.90;;;;;;5076285;28;20973;-80
2023/03/11 04:31:59;;;;;;;0.30;0.30;;;0.40;99.90;;;;;;5076557;28;20445;-80
2023/03/11 04:34:25;;;;;;;0.30;0.20;;;0.30;99.90;;;;;;5076218;28;20445;-80
2023/03/11 04:36:53;;;;;;;0.30;0.20;;;0.30;99.90;;;;;;5076147;28;20481;-80
2023/03/11 04:39:20;;;;;;;3.30;0.50;;;0.30;99.90;;;;;;5076399;28;20523;-80
2023/03/11 04:41:46;;;;;;;0.30;0.30;;;0.20;99.90;;;;;;5076422;28;20445;-80
2023/03/11 04:44:13;;;;;;;0.30;0.20;;;0.20;99.90;;;;;;5076647;28;20441;-80
2023/03/11 04:46:41;;;;;;;0.30;0.20;;;0.20;99.90;;;;;;5075984;28;20473;-80
2023/03/11 04:49:08;;;;;;;0.40;0.30;;;0.20;99.90;;;;;;5076227;28;20470;-80
2023/03/11 04:51:35;;;;;;;0.30;0.20;;;0.20;99.90;;;;;;5075932;28;20453;-80
2023/03/11 04:54:02;;;;;;;0.30;0.30;;;0.20;99.90;;;;;;5076196;28;20456;-80
2023/03/11 04:56:28;;;;;;;1.00;0.50;;;0.20;99.90;;;;;;5076073;28;20477;-80
2023/03/11 04:58:55;;;;;;;0.30;0.30;;;0.20;99.90;;;;;;5076097;28;20469;-80
2023/03/11 05:01:22;;;;;;;0.30;0.30;;;0.20;99.90;;;;;;5076135;28;20460;-80
2023/03/11 05:03:50;;;;;;;0.30;0.30;;;0.20;99.90;;;;;;5076054;28;20453;-80
2023/03/11 05:06:17;;;;;;;0.30;0.20;;;0.20;99.90;;;;;;5075731;28;20967;-80
2023/03/11 05:08:43;;;;;;;0.30;0.20;;;0.20;99.90;;;;;;5075869;28;20496;-80
2023/03/11 05:11:10;;;;;;;0.30;0.20;;;0.20;99.90;;;;;;5075605;28;20887;-80
2023/03/11 05:13:37;;;;;;;0.30;0.20;;;0.20;99.90;;;;;;5075810;28;20459;-80
2023/03/11 05:16:04;;;;;;;0.30;0.30;;;0.20;99.90;;;;;;5075439;28;20473;-80
2023/03/11 05:18:31;;;;;;;0.30;0.30;;;0.20;99.90;;;;;;5075732;28;20465;-80
2023/03/11 05:20:59;;;;;;;0.30;0.30;;;0.20;99.90;;;;;;5075729;28;20481;-80
2023/03/11 05:23:26;;;;;;;0.30;0.30;;;0.20;99.90;;;;;;5075676;28;20441;-80
2023/03/11 05:25:52;;;;;;;0.30;0.20;;;0.20;99.90;;;;;;5075654;28;20457;-80
2023/03/11 05:28:19;;;;;;;0.60;0.60;;;0.20;99.90;;;;;;5076144;28;20544;-80
2023/03/11 05:30:46;;;;;;;0.30;0.30;;;0.20;99.90;;;;;;5075527;28;20449;-80
2023/03/11 05:33:13;;;;;;;0.30;0.20;;;0.10;99.90;;;;;;5075328;28;20453;-80
2023/03/11 05:35:39;;;;;;;0.30;0.30;;;0.10;99.90;;;;;;5076212;28;20485;-80
2023/03/11 05:38:08;;;;;;;0.30;0.30;;;0.10;99.90;;;;;;5075314;28;20461;-80
2023/03/11 05:40:34;;;;;;;0.30;0.30;;;0.10;99.90;;;;;;5075612;28;20442;-80
2023/03/11 05:43:01;;;;;;;0.30;0.20;;;0.10;99.90;;;;;;5075286;28;20457;-80
2023/03/11 05:45:28;;;;;;;0.30;0.30;;;0.10;99.90;;;;;;5075043;28;20480;-80
2023/03/11 05:47:54;;;;;;;0.57;0.47;;;0.10;99.90;;;;;;5075113;28;20477;-80
2023/03/11 05:50:21;;;;;;;0.30;0.20;;;0.10;99.90;;;;;;5075100;28;20456;-80
2023/03/11 05:52:48;;;;;;;0.30;0.30;;;0.10;99.90;;;;;;5075093;28;20446;-80
2023/03/11 05:55:16;;;;;;;0.30;0.30;;;0.10;99.90;;;;;;5075002;28;20449;-80
2023/03/11 05:57:43;;;;;;;0.30;0.30;;;0.10;99.90;;;;;;5074860;28;20488;-80
2023/03/11 06:00:11;;;;;;;0.30;0.30;;;0.10;99.90;;;;;;5074899;28;20817;-80
2023/03/11 06:02:39;;;;;;;0.30;0.30;;;0.10;99.90;;;;;;5074595;28;20874;-80
2023/03/11 06:05:07;;;;;;;0.30;0.27;;;0.20;99.90;;;;;;5074851;28;20446;-80
2023/03/11 06:07:34;;;;;;;0.40;0.40;;;0.20;99.90;;;;;;5074716;28;20476;-80
2023/03/11 06:10:01;;;;;;;0.30;0.30;;;0.20;99.90;;;;;;5074721;28;20933;-80
2023/03/11 06:12:30;;;;;;;0.30;0.30;;;0.30;99.90;;;;;;5074698;28;20445;-80
2023/03/11 06:14:56;;;;;;;1.30;1.30;;;0.30;99.90;;;;;;5075072;28;20464;-80
2023/03/11 06:17:23;;;;;;;0.30;0.30;;;0.30;99.90;;;;;;5074475;28;20477;-80
2023/03/11 06:19:50;;;;;;;0.63;0.63;;;0.60;99.90;;;;;;5074549;28;20464;-80
2023/03/11 06:22:17;;;;;;;0.30;0.30;;;1.30;99.90;;;;;;5074163;28;20448;-80
2023/03/11 06:24:43;;;;;;;0.40;0.37;;;2.00;99.90;;;;;;5074443;28;20461;-80
2023/03/11 06:27:10;;;;;;;0.30;0.30;;;2.40;99.90;;;;;;5074151;28;20434;-80
2023/03/11 06:29:38;;;;;;;0.30;0.30;;;2.60;99.90;;;;;;5073972;28;20969;-80
2023/03/11 06:32:06;;;;;;;0.30;0.30;;;2.50;99.90;;;;;;5074274;28;20450;-80
2023/03/11 06:34:32;;;;;;;0.30;0.30;;;2.40;99.90;;;;;;5073946;28;20441;-80
2023/03/11 06:36:59;;;;;;;0.30;0.30;;;2.10;99.90;;;;;;5074187;28;20480;-80
2023/03/11 06:39:26;;;;;;;0.30;0.30;;;1.90;99.90;;;;;;5074111;28;20527;-80
2023/03/11 06:41:53;;;;;;;0.30;0.30;;;1.70;99.90;;;;;;5074125;28;20445;-80
2023/03/11 06:44:20;;;;;;;0.30;0.30;;;1.60;99.90;;;;;;5073264;28;20960;-80
2023/03/11 06:46:48;;;;;;;0.30;0.20;;;1.50;99.90;;;;;;5073826;28;20476;-80
2023/03/11 06:49:14;;;;;;;0.30;0.30;;;1.40;99.90;;;;;;5073622;28;20992;-80
2023/03/11 06:51:41;;;;;;;0.30;0.30;;;1.40;99.90;;;;;;5073972;28;20456;-80
2023/03/11 06:54:09;;;;;;;0.30;0.20;;;1.50;99.90;;;;;;5073618;28;20950;-80
2023/03/11 06:56:36;;;;;;;0.30;0.20;;;1.60;99.90;;;;;;5073825;28;20489;-80
2023/03/11 06:59:03;;;;;;;0.40;0.30;;;1.70;99.90;;;;;;5074090;28;20461;-80
2023/03/11 07:01:29;;;;;;;0.30;0.30;;;1.70;99.90;;;;;;5073475;28;20868;-80
2023/03/11 07:03:57;;;;;;;0.30;0.27;;;1.80;99.90;;;;;;5073746;28;20424;-83
2023/03/11 07:06:26;;;;;;;0.63;0.33;;;1.80;99.90;;;;;;5073521;28;20902;-82
2023/03/11 07:08:54;;;;;;;0.30;0.30;;;1.90;99.90;;;;;;5073343;28;20994;-82
2023/03/11 07:11:22;;;;;;;0.40;0.30;;;2.10;99.90;;;;;;5073706;28;20427;-82
2023/03/11 07:13:49;;;;;;;0.30;0.30;;;2.00;99.90;;;;;;5073706;28;20445;-82
2023/03/11 07:16:18;;;;;;;0.30;0.20;;;2.20;99.90;;;;;;5073528;28;20496;-83
2023/03/11 07:18:46;;;;;;;0.30;0.30;;;2.30;99.90;;;;;;5073525;28;20472;-82
2023/03/11 07:21:17;;;;;;;0.30;0.23;;;2.50;99.90;;;;;;5073576;28;20450;-83
2023/03/11 07:23:44;;;;;;;0.30;0.30;;;2.70;99.90;;;;;;5073579;28;20442;-82
2023/03/11 07:26:11;;;;;;;2.80;0.53;;;2.80;99.90;;;;;;5073536;28;20429;-82
2023/03/11 07:28:38;;;;;;;0.30;0.30;;;2.80;99.90;;;;;;5073353;28;20464;-82
2023/03/11 07:31:08;;;;;;;0.30;0.20;;;2.90;99.90;;;;;;5073452;28;20456;-82
2023/03/11 07:33:35;;;;;;;0.30;0.20;;;2.80;99.90;;;;;;5073410;28;20461;-82
2023/03/11 07:36:06;;;;;;;0.80;0.40;;;2.70;99.90;;;;;;5073331;28;20446;-83
2023/03/11 07:38:35;;;;;;;0.30;0.30;;;2.70;99.90;;;;;;5073045;28;20468;-83
2023/03/11 07:41:02;;;;;;;0.30;0.30;;;2.60;99.90;;;;;;5073087;28;20770;-83
2023/03/11 07:43:29;;;;;;;0.30;0.30;;;2.40;99.90;;;;;;5073111;28;20965;-82
2023/03/11 07:46:04;;;;;;;0.30;0.30;;;2.40;99.90;;;;;;5072933;28;20488;-82
2023/03/11 07:48:31;;;;;;;0.40;0.30;;;2.20;99.90;;;;;;5072849;28;20468;-82
2023/03/11 07:51:02;;;;;;;0.30;0.30;;;2.20;99.90;;;;;;5073043;28;20454;-82
2023/03/11 07:53:29;;;;;;;0.30;0.30;;;2.20;99.90;;;;;;5073194;28;20450;-82
2023/03/11 07:55:57;;;;;;;0.30;0.20;;;2.20;99.90;;;;;;5074149;28;20441;-83
2023/03/11 07:58:24;;;;;;;0.30;0.30;;;2.10;99.90;;;;;;5077184;28;20496;-82
2023/03/11 08:00:51;;;;;;;1.27;0.60;;;2.10;99.90;;;;;;5077195;28;20794;-82
2023/03/11 08:03:18;;;;;;;0.30;0.20;;;2.20;99.90;;;;;;5077162;28;20452;-82
2023/03/11 08:05:45;;;;;;;0.30;0.30;;;2.20;99.90;;;;;;5077171;28;20449;-82
2023/03/11 08:08:12;;;;;;;0.30;0.30;;;2.10;99.90;;;;;;5077018;28;20833;-82
2023/03/11 08:10:39;;;;;;;0.40;0.30;;;2.20;99.90;;;;;;5077274;28;20452;-82
2023/03/11 08:13:07;;;;;;;0.30;0.20;;;2.30;99.90;;;;;;5076949;28;20809;-82
2023/03/11 08:15:34;;;;;;;0.30;0.20;;;2.40;99.90;;;;;;5076923;28;20816;-82
2023/03/11 08:18:00;;;;;;;0.40;0.30;;;2.40;99.90;;;;;;5076713;28;20489;-82
2023/03/11 08:20:27;;;;;;;0.40;0.40;;;2.40;99.90;;;;;;5076521;28;20949;-82
2023/03/11 08:22:54;;;;;;;0.30;0.20;;;2.40;99.90;;;;;;5076798;28;20420;-82
2023/03/11 08:25:21;;;;;;;0.30;0.20;;;2.50;99.90;;;;;;5076450;28;20453;-82
2023/03/11 08:27:48;;;;;;;0.30;0.30;;;2.60;99.90;;;;;;5077429;28;20488;-82
2023/03/11 08:30:17;;;;;;;0.30;0.20;;;2.70;99.90;;;;;;5076625;28;20456;-82
2023/03/11 08:32:44;;;;;;;0.30;0.30;;;2.80;99.90;;;;;;5076577;28;20444;-82
2023/03/11 08:35:11;;;;;;;0.30;0.30;;;2.90;99.90;;;;;;5076206;28;20956;-82
2023/03/11 08:37:37;;;;;;;0.30;0.20;;;3.20;99.90;;;;;;5076282;28;20489;-83
2023/03/11 08:40:05;;;;;;;0.30;0.30;;;3.20;99.90;;;;;;5076460;28;20430;-84
2023/03/11 08:42:32;;;;;;;0.47;0.40;;;3.30;99.90;;;;;;5076360;28;20454;-84
2023/03/11 08:44:59;;;;;;;0.30;0.30;;;3.30;99.90;;;;;;5076109;28;20511;-84
2023/03/11 08:47:27;;;;;;;0.30;0.27;;;3.50;99.90;;;;;;5075999;28;20426;-84
2023/03/11 08:49:54;;;;;;;0.30;0.30;;;3.50;99.90;;;;;;5076003;28;20928;-84
2023/03/11 08:52:20;;;;;;;0.30;0.20;;;3.60;99.90;;;;;;5076004;28;20460;-84
2023/03/11 08:54:47;;;;;;;0.43;0.30;;;3.90;99.90;;;;;;5076238;28;20792;-84
2023/03/11 08:57:14;;;;;;;0.30;0.30;;;4.00;99.90;;;;;;5075660;28;20840;-84
2023/03/11 08:59:40;;;;;;;0.30;0.20;;;4.30;99.90;;;;;;5075831;28;20445;-83
2023/03/11 09:02:07;;;;;;;0.40;0.30;;;4.50;99.90;;;;;;5075846;28;20457;-83
2023/03/11 09:04:35;;;;;;;0.40;0.30;;;4.80;99.90;;;;;;5075780;28;20445;-83
2023/03/11 09:07:02;;;;;;;3.13;0.40;;;5.20;99.90;;;;;;5075374;28;20450;-83
2023/03/11 09:09:28;;;;;;;0.30;0.20;;;5.50;99.90;;;;;;5075591;28;20999;-84
2023/03/11 09:11:55;;;;;;;0.30;0.30;;;6.00;99.90;;;;;;5075935;28;20450;-83
2023/03/11 09:14:22;;;;;;;0.90;0.90;;;6.60;99.90;;;;;;5075866;28;20445;-84
2023/03/11 09:16:49;;;;;;;0.30;0.30;;;7.20;99.90;;;;;;5075757;28;20488;-84
2023/03/11 09:19:15;;;;;;;0.30;0.20;;;7.30;99.90;;;;;;5075748;28;20472;-84
2023/03/11 09:21:43;;;;;;;0.30;0.30;;;7.20;99.90;;;;;;5075400;28;20968;-84
2023/03/11 09:24:10;;;;;;;0.40;0.30;;;7.00;99.90;;;;;;5075644;28;20899;-84
2023/03/11 09:26:37;;;;;;;0.30;0.27;;;6.60;99.90;;;;;;5075399;28;20460;-84
2023/03/11 09:29:04;;;;;;;0.30;0.20;;;6.30;99.90;;;;;;5075556;28;20469;-84
2023/03/11 09:31:30;;;;;;;0.40;0.30;;;7.60;99.90;;;;;;5075541;28;20468;-84
2023/03/11 09:33:57;;;;;;;0.30;0.30;;;9.80;99.90;;;;;;5075519;28;20437;-83
2023/03/11 09:36:25;;;;;;;0.30;0.30;;;11.80;94.80;;;;;;5075402;28;20452;-84
2023/03/11 09:38:53;;;;;;;0.30;0.30;;;14.00;86.80;;;;;;5074970;28;21039;-83
2023/03/11 09:41:28;;;;;;;0.50;0.30;;;15.20;68.30;;;;;;5075055;28;20449;-84
2023/03/11 09:44:14;;;;;;;0.40;0.30;;;16.10;58.60;;;;;;5075428;28;20437;-84
2023/03/11 09:46:57;;;;;;;0.40;0.30;;;15.60;55.70;;;;;;5075015;28;20481;-84
2023/03/11 09:49:32;;;;;;;2.83;0.30;;;14.50;56.40;;;;;;5074920;28;20995;-85
2023/03/11 09:52:08;;;;;;;0.40;0.30;;;13.90;58.80;;;;;;5075231;28;20433;-85
2023/03/11 09:54:40;;;;;;;0.30;0.30;;;13.00;58.50;;;;;;5075219;28;20441;-86
2023/03/11 09:57:12;;;;;;;0.30;0.30;;;12.20;58.60;;;;;;5075111;28;20527;-85
2023/03/11 09:59:42;;;;;;;3.70;0.40;;;11.10;59.20;;;;;;5074882;28;20419;-85
2023/03/11 10:02:14;;;;;;;0.30;0.30;;;10.50;64.00;;;;;;5074731;28;20906;-84
2023/03/11 10:04:45;;;;;;;0.40;0.30;;;10.20;64.70;;;;;;5075290;28;20858;-85
2023/03/11 10:07:20;;;;;;;0.40;0.30;;;10.80;64.00;;;;;;5074856;28;20433;-82
2023/03/11 10:09:52;;;;;;;0.30;0.20;;;12.00;66.90;;;;;;5074851;28;20433;-82
2023/03/11 10:12:30;;;;;;;0.50;0.30;;;12.60;63.00;;;;;;5074746;28;20457;-82
2023/03/11 10:15:10;;;;;;;0.40;0.30;;;12.60;58.60;;;;;;5074750;28;20433;-81
2023/03/11 10:17:52;;;;;;;0.40;0.40;;;12.30;57.90;;;;;;5074421;28;20558;-82
2023/03/11 10:20:24;;;;;;;0.40;0.30;;;11.90;60.60;;;;;;5073750;28;20796;-82
2023/03/11 10:23:01;;;;;;;0.80;0.40;;;11.20;60.30;;;;;;5074330;28;20824;-82
2023/03/11 10:25:34;;;;;;;0.40;0.30;;;10.40;61.50;;;;;;5074482;28;20429;-82
2023/03/11 10:28:05;;;;;;;0.73;0.40;;;9.70;61.60;;;;;;5074418;28;20465;-82
2023/03/11 10:30:36;;;;;;;0.30;0.20;;;9.10;64.80;;;;;;5074429;28;20426;-82
2023/03/11 10:33:13;;;;;;;0.50;0.40;;;8.50;65.10;;;;;;5074058;28;20430;-82
2023/03/11 10:35:43;;;;;;;0.40;0.30;;;8.00;67.20;;;;;;5074299;28;20433;-82
2023/03/11 10:38:15;;;;;;;0.30;0.30;;;7.60;68.50;;;;;;5074011;28;20979;-82
2023/03/11 10:40:45;;;;;;;0.30;0.30;;;7.30;69.00;;;;;;5073927;28;20489;-82
2023/03/11 10:43:16;;;;;;;0.30;0.30;;;7.00;69.80;;;;;;5073853;28;20441;-82
2023/03/11 10:45:47;;;;;;;2.50;0.40;;;6.60;69.50;;;;;;5073957;28;20511;-82
2023/03/11 10:48:15;;;;;;;0.30;0.30;;;7.60;72.50;;;;;;5074046;28;20510;-82
2023/03/11 10:50:49;;;;;;;0.40;0.30;;;10.40;67.00;;;;;;5074027;28;20456;-82
2023/03/11 10:53:18;;;;;;;0.30;0.30;;;13.50;60.00;;;;;;5074001;28;20803;-82
2023/03/11 10:55:48;;;;;;;0.30;0.30;;;15.80;52.40;;;;;;5073929;28;20449;-82
2023/03/11 10:58:17;;;;;;;0.40;0.30;;;17.40;49.90;;;;;;5073412;28;20486;-82
2023/03/11 11:00:45;;;;;;;0.40;0.30;;;16.60;47.90;;;;;;5073808;28;20456;-82
2023/03/11 11:03:20;;;;;;;0.83;0.50;;;15.20;50.40;;;;;;5073746;28;20485;-82
2023/03/11 11:05:59;;;;;;;0.30;0.30;;;13.80;52.10;;;;;;5073808;28;20433;-82
2023/03/11 11:08:26;;;;;;;0.40;0.40;;;12.30;53.70;;;;;;5073697;28;20465;-82
2023/03/11 11:10:56;;;;;;;1.17;0.40;;;11.10;57.40;;;;;;5073732;28;20446;-82
2023/03/11 11:13:24;;;;;;;0.40;0.30;;;10.10;58.10;;;;;;5073379;28;20456;-82
2023/03/11 11:15:57;;;;;;;0.30;0.30;;;9.30;61.20;;;;;;5073280;28;20929;-82
2023/03/11 11:18:26;;;;;;;0.30;0.20;;;8.70;63.10;;;;;;5073209;28;21035;-82
2023/03/11 11:20:57;;;;;;;0.30;0.30;;;8.40;63.50;;;;;;5073573;28;20448;-82
2023/03/11 11:23:27;;;;;;;0.30;0.30;;;8.20;65.30;;;;;;5073204;28;20811;-82
2023/03/11 11:26:01;;;;;;;0.30;0.20;;;8.30;64.00;;;;;;5073276;28;20901;-82
2023/03/11 11:28:28;;;;;;;0.30;0.30;;;8.10;63.00;;;;;;5073462;28;20466;-82
2023/03/11 11:30:57;;;;;;;0.30;0.20;;;7.90;64.60;;;;;;5073198;28;20456;-82
2023/03/11 11:33:27;;;;;;;0.40;0.33;;;7.70;63.40;;;;;;5073113;28;20929;-82
2023/03/11 11:35:56;;;;;;;0.30;0.20;;;7.70;66.20;;;;;;5073432;28;20453;-82
2023/03/11 11:38:24;;;;;;;0.60;0.40;;;7.60;66.30;;;;;;5073247;28;20881;-82
2023/03/11 11:40:52;;;;;;;0.40;0.33;;;7.50;67.20;;;;;;5073445;28;20452;-82
2023/03/11 11:43:25;;;;;;;0.40;0.30;;;7.60;65.70;;;;;;5073189;28;20468;-82
2023/03/11 11:45:57;;;;;;;0.40;0.30;;;7.60;66.90;;;;;;5072862;28;20992;-82
2023/03/11 11:48:32;;;;;;;0.30;0.30;;;7.70;65.10;;;;;;5072905;28;20468;-82
2023/03/11 11:51:01;;;;;;;1.53;0.40;;;7.80;67.30;;;;;;5073304;28;20433;-82
2023/03/11 11:53:34;;;;;;;0.40;0.33;;;7.80;66.10;;;;;;5073193;28;20460;-82
2023/03/11 11:56:01;;;;;;;0.37;0.30;;;7.90;66.70;;;;;;5073658;28;20457;-82
2023/03/11 11:58:31;;;;;;;2.40;0.90;;;7.90;66.40;;;;;;5073015;28;20496;-82
2023/03/11 12:01:13;;;;;;;0.40;0.40;;;7.60;64.20;;;;;;5073177;28;20808;-82
2023/03/11 12:03:55;;;;;;;0.30;0.20;;;7.30;65.30;;;;;;5073678;28;20434;-82
2023/03/11 12:06:30;;;;;;;0.30;0.20;;;7.10;66.00;;;;;;5073123;28;20430;-82
2023/03/11 12:09:07;;;;;;;0.87;0.47;;;7.00;67.50;;;;;;5073039;28;20472;-82
2023/03/11 12:11:40;;;;;;;0.30;0.30;;;6.90;67.30;;;;;;5073094;28;20442;-82
2023/03/11 12:14:17;;;;;;;0.30;0.30;;;7.00;68.80;;;;;;5073087;28;20430;-82
2023/03/11 12:16:52;;;;;;;0.40;0.30;;;7.10;67.10;;;;;;5072741;28;20434;-82
2023/03/11 12:19:28;;;;;;;0.30;0.20;;;7.10;67.60;;;;;;5072901;28;20492;-82
2023/03/11 12:22:13;;;;;;;0.40;0.30;;;7.00;66.20;;;;;;5073004;28;20452;-82
2023/03/11 12:24:56;;;;;;;0.30;0.30;;;7.00;66.50;;;;;;5072964;28;20433;-82
2023/03/11 12:27:27;;;;;;;0.30;0.30;;;7.00;67.30;;;;;;5072558;28;20433;-82
2023/03/11 12:29:59;;;;;;;0.40;0.30;;;7.10;66.60;;;;;;5072913;28;20441;-82
2023/03/11 12:32:34;;;;;;;0.30;0.30;;;7.20;65.80;;;;;;5072888;28;20437;-82
2023/03/11 12:35:03;;;;;;;0.40;0.40;;;7.10;65.70;;;;;;5072869;28;20425;-83
2023/03/11 12:37:30;;;;;;;0.30;0.20;;;7.00;64.90;;;;;;5072686;28;20446;-82
2023/03/11 12:39:57;;;;;;;0.30;0.30;;;7.00;66.60;;;;;;5072790;28;20449;-81
2023/03/11 12:42:37;;;;;;;0.30;0.20;;;6.90;66.40;;;;;;5074343;28;20445;-81
2023/03/11 12:45:38;;;;;;;0.40;0.33;;;6.90;68.30;;;;;;5075962;28;20988;-81
2023/03/11 12:48:35;;;;;;;0.30;0.30;;;7.00;68.90;;;;;;5076370;28;20453;-82
2023/03/11 12:51:04;;;;;;;0.40;0.30;;;7.00;69.50;;;;;;5076296;28;20445;-82
2023/03/11 12:53:45;;;;;;;0.67;0.30;;;7.20;68.10;;;;;;5075961;28;20445;-82
2023/03/11 12:56:24;;;;;;;0.30;0.30;;;7.30;67.50;;;;;;5076231;28;20437;-82
2023/03/11 12:59:07;;;;;;;0.30;0.30;;;7.20;67.10;;;;;;5076039;28;20485;-82
2023/03/11 13:01:47;;;;;;;0.30;0.30;;;7.30;68.60;;;;;;5076157;28;20437;-82
2023/03/11 13:04:35;;;;;;;0.30;0.30;;;7.30;69.50;;;;;;5076100;28;20461;-82